Time;durP1;ratioP1;P1;durP2;ratioP2;P2;SDS_P1;SDS_P2;PMS_P1;PMS_P2;Temp;Humidity;BMP_temperature;BMP_pressure;BME280_temperature;BME280_humidity;BME280_pressure;Samples;Min_cycle;Max_cycle;Signal;HPM_P1;HPM_P2
2023/10/01 05:16:13;;;;;;;;;;;;;;;19.32;65.10;97742.78;4263791;27;10299;-61
2023/10/01 05:18:17;;;;;;;;;;;;;;;19.60;64.39;97748.44;4264447;27;5797;-61
2023/10/01 05:20:20;;;;;;;;;;;;;;;19.83;64.10;97749.56;4248354;27;5072;-61
2023/10/01 05:22:23;;;;;;;;;;;;;;;19.98;63.52;97747.25;4253626;27;5597;-62
2023/10/01 05:24:35;;;;;;;;;;;;;;;20.11;63.11;97741.66;4258039;27;5795;-61
2023/10/01 05:26:38;;;;;;;;;;;;;;;20.23;62.83;97745.19;4253072;27;5675;-61
2023/10/01 05:28:42;;;;;;;;;;;;;;;20.32;62.38;97746.50;4261935;27;5665;-61
2023/10/01 05:30:46;;;;;;;;;;;;;;;20.40;62.20;97745.34;4268466;27;5589;-62
2023/10/01 05:32:51;;;;;;;;;;;;;;;20.47;61.75;97750.63;4250896;27;7028;-62
2023/10/01 05:35:14;;;;;;;;;;;;;;;20.51;61.61;97752.63;4256729;27;5613;-62
2023/10/01 05:37:24;;;;;;;;;;;;;;;20.56;60.95;97754.59;4248464;27;5225;-62
2023/10/01 05:39:53;;;;;;;;;;;;;;;20.60;60.93;97753.88;4263059;27;5654;-62
2023/10/01 05:41:52;;;;;;;;;;;;;;;20.64;60.75;97757.75;4256877;27;5669;-62
2023/10/01 05:43:56;;;;;;;;;;;;;;;20.67;60.43;97751.09;4254549;27;5745;-62
2023/10/01 05:46:01;;;;;;;;;;;;;;;20.69;60.14;97751.66;4256947;27;5732;-62
2023/10/01 05:48:10;;;;;;;;;;;;;;;20.70;59.73;97756.00;4259473;27;5658;-62
2023/10/01 05:50:14;;;;;;;;;;;;;;;20.71;59.73;97757.63;4256686;27;6568;-62
2023/10/01 05:52:18;;;;;;;;;;;;;;;20.72;59.45;97763.81;4259900;27;5855;-62
2023/10/01 05:54:22;;;;;;;;;;;;;;;20.73;59.91;97768.16;4270955;27;5813;-63
2023/10/01 05:56:36;;;;;;;;;;;;;;;20.74;59.32;97767.91;4269233;27;5639;-63
2023/10/01 05:58:39;;;;;;;;;;;;;;;20.75;59.27;97761.50;4259297;27;6275;-63
2023/10/01 06:00:45;;;;;;;;;;;;;;;20.77;59.10;97770.13;4255742;27;5775;-62
2023/10/01 06:03:00;;;;;;;;;;;;;;;20.78;59.11;97763.69;4255783;27;5583;-62
2023/10/01 06:05:22;;;;;;;;;;;;;;;20.79;59.05;97765.34;4263593;27;5582;-63
2023/10/01 06:07:26;;;;;;;;;;;;;;;20.80;58.74;97766.97;4255702;27;5574;-63
2023/10/01 06:09:33;;;;;;;;;;;;;;;20.80;58.89;97769.66;4255481;27;5654;-62
2023/10/01 06:11:48;;;;;;;;;;;;;;;20.81;58.52;97775.84;4255546;27;5733;-63
2023/10/01 06:13:53;;;;;;;;;;;;;;;20.82;58.45;97775.59;4235931;27;5838;-61
2023/10/01 06:15:56;;;;;;;;;;;;;;;20.82;58.58;97774.78;4250806;27;5733;-62
2023/10/01 06:18:00;;;;;;;;;;;;;;;20.84;58.25;97778.09;4243819;27;5775;-62
2023/10/01 06:20:23;;;;;;;;;;;;;;;20.85;58.50;97777.84;4243354;27;5595;-62
2023/10/01 06:22:26;;;;;;;;;;;;;;;20.88;58.31;97771.19;4246616;27;6534;-62
2023/10/01 06:24:29;;;;;;;;;;;;;;;20.88;58.25;97772.00;4242402;27;5586;-63
2023/10/01 06:26:36;;;;;;;;;;;;;;;20.89;58.18;97773.63;4248841;27;5622;-63
2023/10/01 06:28:38;;;;;;;;;;;;;;;20.91;57.92;97779.59;4243911;27;5684;-63
2023/10/01 06:30:43;;;;;;;;;;;;;;;20.92;58.09;97769.66;4243859;27;5597;-63
2023/10/01 06:32:46;;;;;;;;;;;;;;;20.94;57.87;97773.72;4252695;27;5662;-63
2023/10/01 06:34:49;;;;;;;;;;;;;;;20.96;57.96;97775.38;4243818;27;5903;-64
2023/10/01 06:36:58;;;;;;;;;;;;;;;20.96;58.03;97764.63;4248445;27;5689;-63
2023/10/01 06:39:01;;;;;;;;;;;;;;;20.97;57.68;97771.66;4244149;27;5590;-64
2023/10/01 06:41:08;;;;;;;;;;;;;;;20.97;57.86;97779.72;4250104;27;5785;-64
2023/10/01 06:43:12;;;;;;;;;;;;;;;20.98;57.53;97782.16;4244452;27;5579;-64
2023/10/01 06:45:15;;;;;;;;;;;;;;;21.00;57.62;97776.53;4251124;27;5574;-64
2023/10/01 06:47:18;;;;;;;;;;;;;;;21.00;57.50;97777.34;4245248;27;5601;-64
2023/10/01 06:49:21;;;;;;;;;;;;;;;21.01;57.71;97780.88;4243758;27;5593;-63
2023/10/01 06:51:25;;;;;;;;;;;;;;;21.02;57.71;97769.06;4243290;27;5685;-64
2023/10/01 06:53:43;;;;;;;;;;;;;;;21.03;57.77;97774.19;4243670;27;6465;-63
2023/10/01 06:55:48;;;;;;;;;;;;;;;21.06;57.71;97780.97;4243168;27;5707;-63
2023/10/01 06:57:51;;;;;;;;;;;;;;;21.07;57.79;97782.63;4242484;27;5587;-63
2023/10/01 06:59:56;;;;;;;;;;;;;;;21.08;57.63;97778.88;4245675;27;5702;-63
2023/10/01 07:01:59;;;;;;;;;;;;;;;21.09;57.41;97775.13;4250890;27;5550;-65
2023/10/01 07:04:02;;;;;;;;;;;;;;;21.09;57.58;97775.94;4246974;27;5665;-66
2023/10/01 07:06:05;;;;;;;;;;;;;;;21.11;57.38;97781.09;4249887;27;5668;-65
2023/10/01 07:08:08;;;;;;;;;;;;;;;21.11;57.43;97781.09;4242957;27;5656;-65
2023/10/01 07:10:14;;;;;;;;;;;;;;;21.13;57.62;97784.34;4242703;27;5662;-65
2023/10/01 07:12:23;;;;;;;;;;;;;;;21.10;57.53;97782.13;4250305;27;5700;-65
2023/10/01 07:14:43;;;;;;;;;;;;;;;21.11;57.71;97781.09;4242834;27;5734;-65
2023/10/01 07:16:47;;;;;;;;;;;;;;;21.12;57.61;97782.72;4242783;27;5670;-65
2023/10/01 07:18:53;;;;;;;;;;;;;;;21.13;57.41;97782.47;4242742;27;5707;-63
2023/10/01 07:21:00;;;;;;;;;;;;;;;21.16;57.29;97789.25;4249880;27;6453;-65
2023/10/01 07:23:03;;;;;;;;;;;;;;;21.17;57.12;97794.38;4243798;27;5684;-65
2023/10/01 07:25:28;;;;;;;;;;;;;;;21.18;57.31;97796.03;4251318;27;5062;-65
2023/10/01 07:27:31;;;;;;;;;;;;;;;21.19;57.50;97792.31;4234039;27;5740;-65
2023/10/01 07:29:35;;;;;;;;;;;;;;;21.21;57.35;97789.38;4242288;27;7703;-65
2023/10/01 07:31:38;;;;;;;;;;;;;;;21.22;56.88;97793.69;4242475;27;5668;-65
2023/10/01 07:33:41;;;;;;;;;;;;;;;21.25;56.92;97792.41;4242956;27;5696;-66
2023/10/01 07:35:58;;;;;;;;;;;;;;;21.26;57.08;97792.19;4247802;27;6275;-66
2023/10/01 07:38:02;;;;;;;;;;;;;;;21.29;57.27;97786.31;4239264;27;5657;-66
2023/10/01 07:40:09;;;;;;;;;;;;;;;21.29;57.34;97786.31;4244097;27;5603;-66
2023/10/01 07:42:13;;;;;;;;;;;;;;;21.31;56.88;97794.19;4242510;27;5676;-65
2023/10/01 07:44:18;;;;;;;;;;;;;;;21.33;56.81;97789.38;4235673;27;5688;-65
2023/10/01 07:46:21;;;;;;;;;;;;;;;21.34;56.90;97794.50;4248776;27;5661;-66
2023/10/01 07:48:24;;;;;;;;;;;;;;;21.36;57.14;97792.41;4236802;27;5590;-65
2023/10/01 07:50:27;;;;;;;;;;;;;;;21.39;57.23;97791.91;4262406;27;5568;-64
2023/10/01 07:52:32;;;;;;;;;;;;;;;21.42;56.89;97791.47;4261491;27;5643;-65
2023/10/01 07:54:34;;;;;;;;;;;;;;;21.44;56.98;97797.41;4246147;27;5590;-65
2023/10/01 07:56:39;;;;;;;;;;;;;;;21.45;56.87;97788.28;4242008;27;5637;-66
2023/10/01 07:58:48;;;;;;;;;;;;;;;21.48;56.82;97803.13;4245391;27;5597;-65
2023/10/01 08:00:59;;;;;;;;;;;;;;;21.49;56.87;97794.81;4248667;27;5703;-65
2023/10/01 08:05:22;;;;;;;;;;;;;;;21.48;56.68;97795.06;4248227;27;5598;-65
2023/10/01 08:07:30;;;;;;;;;;;;;;;21.45;57.06;97799.06;4241928;27;5696;-65
2023/10/01 08:09:39;;;;;;;;;;;;;;;21.42;56.73;97799.53;4247179;27;5674;-65
2023/10/01 08:11:58;;;;;;;;;;;;;;;21.38;57.36;97795.66;4242335;27;6768;-65
2023/10/01 08:14:05;;;;;;;;;;;;;;;21.41;57.46;97800.59;4242452;27;5832;-65
2023/10/01 08:16:13;;;;;;;;;;;;;;;21.43;57.35;97805.72;4242344;27;7666;-65
2023/10/01 08:18:34;;;;;;;;;;;;;;;21.45;56.88;97795.53;4249816;27;5643;-65
2023/10/01 08:20:44;;;;;;;;;;;;;;;21.48;57.02;97795.88;4250330;27;5677;-65
2023/10/01 08:25:08;;;;;;;;;;;;;;;21.52;56.99;97801.63;4241148;27;5582;-65
2023/10/01 08:27:12;;;;;;;;;;;;;;;21.56;56.96;97801.94;4242120;27;5593;-65
2023/10/01 08:29:16;;;;;;;;;;;;;;;21.57;56.62;97804.41;4241948;27;5726;-65
2023/10/01 08:33:42;;;;;;;;;;;;;;;21.58;56.70;97794.44;4245818;27;5643;-65
2023/10/01 08:35:56;;;;;;;;;;;;;;;21.58;57.13;97797.13;4241511;27;7247;-64
2023/10/01 08:38:00;;;;;;;;;;;;;;;21.60;57.09;97800.41;4241442;27;5621;-65
2023/10/01 08:40:04;;;;;;;;;;;;;;;21.61;56.76;97797.47;4241475;27;5672;-65
2023/10/01 08:42:10;;;;;;;;;;;;;;;21.63;56.85;97802.59;4235048;27;5718;-65
2023/10/01 08:44:12;;;;;;;;;;;;;;;21.63;56.92;97802.59;4241530;27;7675;-65
2023/10/01 08:46:26;;;;;;;;;;;;;;;21.61;56.55;97804.72;4249025;27;5673;-65
2023/10/01 08:48:36;;;;;;;;;;;;;;;21.62;56.79;97807.19;4241966;27;5766;-65
2023/10/01 08:50:40;;;;;;;;;;;;;;;21.64;56.87;97807.78;4241712;27;6369;-64
2023/10/01 08:52:52;;;;;;;;;;;;;;;21.65;56.76;97805.91;4241873;27;5680;-65
2023/10/01 08:54:56;;;;;;;;;;;;;;;21.68;56.61;97805.41;4241618;27;5688;-65
2023/10/01 08:56:58;;;;;;;;;;;;;;;21.70;56.98;97804.13;4257508;27;5575;-65
2023/10/01 08:59:23;;;;;;;;;;;;;;;21.72;56.98;97802.00;4258062;27;5584;-65
2023/10/01 09:01:28;;;;;;;;;;;;;;;21.76;56.88;97796.97;4248792;27;5669;-64
2023/10/01 09:03:34;;;;;;;;;;;;;;;21.76;56.31;97802.34;4248078;27;6035;-64
2023/10/01 09:05:46;;;;;;;;;;;;;;;21.74;56.68;97799.06;4241535;27;5602;-64
2023/10/01 09:07:51;;;;;;;;;;;;;;;21.73;56.45;97798.25;4247498;27;5805;-64
2023/10/01 09:10:08;;;;;;;;;;;;;;;21.75;56.51;97806.09;4235119;27;5688;-64
2023/10/01 09:12:18;;;;;;;;;;;;;;;21.72;56.41;97801.19;4223017;28;6384;-63
2023/10/01 09:14:37;;;;;;;;;;;;;;;21.75;56.50;97800.72;4247770;27;5626;-65
2023/10/01 09:16:42;;;;;;;;;;;;;;;21.75;56.75;97801.53;4240608;27;5737;-66
2023/10/01 09:19:03;;;;;;;;;;;;;;;21.76;56.62;97803.16;4241803;27;5654;-66
2023/10/01 09:21:08;;;;;;;;;;;;;;;21.77;56.44;97804.81;4241493;27;5579;-65
2023/10/01 09:23:12;;;;;;;;;;;;;;;21.79;56.80;97801.88;4241592;27;5718;-66
2023/10/01 09:25:20;;;;;;;;;;;;;;;21.79;56.61;97807.25;4242511;27;5590;-65
2023/10/01 09:27:28;;;;;;;;;;;;;;;21.82;56.82;97806.75;4250042;27;5936;-67
2023/10/01 09:29:32;;;;;;;;;;;;;;;21.82;56.25;97806.75;4250348;27;7664;-67
2023/10/01 09:31:52;;;;;;;;;;;;;;;21.84;56.72;97799.25;4241499;27;5698;-68
2023/10/01 09:33:55;;;;;;;;;;;;;;;21.86;56.11;97807.94;4243268;27;5729;-68
2023/10/01 09:36:00;;;;;;;;;;;;;;;21.87;56.52;97801.50;4245969;27;5736;-69
2023/10/01 09:38:09;;;;;;;;;;;;;;;21.89;56.11;97796.69;4241971;27;5689;-69
2023/10/01 09:40:32;;;;;;;;;;;;;;;21.89;56.24;97802.06;4215060;28;6430;-69
2023/10/01 09:42:44;;;;;;;;;;;;;;;21.86;56.60;97802.56;4240058;27;5803;-69
2023/10/01 09:44:48;;;;;;;;;;;;;;;21.88;56.31;97811.19;4241104;27;5606;-69
2023/10/01 09:47:07;;;;;;;;;;;;;;;21.90;56.12;97797.50;4243486;27;5731;-69
2023/10/01 09:49:16;;;;;;;;;;;;;;;21.92;56.04;97801.56;4243729;27;5698;-69
2023/10/01 09:51:21;;;;;;;;;;;;;;;21.90;56.50;97798.31;4250232;27;5675;-69
2023/10/01 09:53:26;;;;;;;;;;;;;;;21.93;55.92;97803.19;4256379;27;5586;-69
2023/10/01 09:55:29;;;;;;;;;;;;;;;21.93;56.43;97792.44;4247768;27;5674;-69
2023/10/01 09:57:37;;;;;;;;;;;;;;;21.94;56.32;97793.25;4242520;27;5658;-69
2023/10/01 09:59:41;;;;;;;;;;;;;;;21.92;56.16;97785.41;4244429;27;5651;-68
2023/10/01 10:01:45;;;;;;;;;;;;;;;21.95;56.13;97789.50;4240457;27;6434;-69
2023/10/01 10:03:54;;;;;;;;;;;;;;;21.97;56.18;97788.22;4250428;27;5579;-68
2023/10/01 10:05:57;;;;;;;;;;;;;;;21.99;56.04;97794.16;4245486;27;5783;-69
2023/10/01 10:08:13;;;;;;;;;;;;;;;22.00;55.80;97790.41;4243946;27;5722;-69
2023/10/01 10:10:24;;;;;;;;;;;;;;;22.03;56.04;97789.13;4235446;27;5688;-68
2023/10/01 10:12:33;;;;;;;;;;;;;;;22.04;56.13;97796.94;4258845;27;5779;-69
2023/10/01 10:14:56;;;;;;;;;;;;;;;22.05;55.56;97795.88;4248550;27;6419;-69
2023/10/01 10:17:00;;;;;;;;;;;;;;;22.06;55.91;97792.16;4245205;27;5656;-69
2023/10/01 10:19:08;;;;;;;;;;;;;;;22.07;55.98;97793.78;4251276;27;5308;-68
2023/10/01 10:21:11;;;;;;;;;;;;;;;22.08;55.42;97792.75;4245387;27;5755;-68
2023/10/01 10:23:14;;;;;;;;;;;;;;;22.08;55.59;97790.06;4251517;27;5679;-68
2023/10/01 10:25:25;;;;;;;;;;;;;;;22.08;55.81;97790.06;4251053;27;5594;-68
2023/10/01 10:27:47;;;;;;;;;;;;;;;22.10;55.75;97797.09;4226140;28;5708;-68
2023/10/01 10:30:14;;;;;;;;;;;;;;;22.10;55.32;97789.81;4238029;27;5715;-68
2023/10/01 10:32:24;;;;;;;;;;;;;;;22.10;55.35;97787.13;4245597;27;5819;-68
2023/10/01 10:34:36;;;;;;;;;;;;;;;22.11;55.40;97791.44;4266782;27;5594;-68
2023/10/01 10:36:50;;;;;;;;;;;;;;;22.13;55.50;97786.63;4242964;27;5757;-68
2023/10/01 10:38:54;;;;;;;;;;;;;;;22.14;55.52;97782.06;4243831;27;5655;-68
2023/10/01 10:41:05;;;;;;;;;;;;;;;22.15;55.64;97778.31;4243736;27;5737;-67
2023/10/01 10:43:18;;;;;;;;;;;;;;;22.16;55.60;97788.00;4244244;27;5590;-68
2023/10/01 10:45:24;;;;;;;;;;;;;;;22.17;55.36;97787.78;4243724;27;5673;-65
2023/10/01 10:47:28;;;;;;;;;;;;;;;22.18;55.17;97788.59;4247004;27;5586;-68
2023/10/01 10:49:50;;;;;;;;;;;;;;;22.18;55.28;97785.88;4248740;27;5605;-68
2023/10/01 10:51:58;;;;;;;;;;;;;;;22.21;55.37;97788.13;4242981;27;5586;-68
2023/10/01 10:54:00;;;;;;;;;;;;;;;22.21;55.03;97780.03;4252189;27;6469;-68
2023/10/01 10:56:06;;;;;;;;;;;;;;;22.22;55.15;97789.75;4259287;27;5662;-68
2023/10/01 10:58:12;;;;;;;;;;;;;;;22.23;55.43;97783.31;4243671;27;5678;-68
2023/10/01 11:00:24;;;;;;;;;;;;;;;22.24;55.32;97780.34;4244981;27;5582;-68
2023/10/01 11:02:39;;;;;;;;;;;;;;;22.26;55.29;97777.41;4246139;27;5563;-68
2023/10/01 11:04:44;;;;;;;;;;;;;;;22.28;55.35;97784.19;4258608;27;6466;-68
2023/10/01 11:07:02;;;;;;;;;;;;;;;22.27;55.22;97779.06;4246551;27;5861;-68
2023/10/01 11:09:22;;;;;;;;;;;;;;;22.29;55.50;97769.66;4255509;27;5659;-68
2023/10/01 11:11:25;;;;;;;;;;;;;;;22.30;55.34;97760.50;4246242;27;5598;-68
2023/10/01 11:13:46;;;;;;;;;;;;;;;22.33;55.43;97767.31;4251933;27;5588;-67
2023/10/01 11:15:49;;;;;;;;;;;;;;;22.32;55.32;97765.69;4245885;27;5704;-68
2023/10/01 11:17:59;;;;;;;;;;;;;;;22.31;55.00;97764.03;4251973;27;6359;-68
2023/10/01 11:20:03;;;;;;;;;;;;;;;22.32;54.72;97768.38;4243214;27;5793;-68
2023/10/01 11:22:09;;;;;;;;;;;;;;;22.32;55.08;97768.38;4234414;28;5759;-68
2023/10/01 11:24:13;;;;;;;;;;;;;;;22.32;54.71;97758.41;4235103;28;5718;-68
2023/10/01 11:26:27;;;;;;;;;;;;;;;22.35;55.15;97768.69;4235002;27;5643;-68
2023/10/01 11:28:41;;;;;;;;;;;;;;;22.37;55.01;97760.38;4236804;27;5688;-68
2023/10/01 11:30:44;;;;;;;;;;;;;;;22.36;55.05;97754.16;4249825;27;5748;-68
2023/10/01 11:32:58;;;;;;;;;;;;;;;22.40;54.80;97759.06;4245901;27;6401;-68
2023/10/01 11:35:05;;;;;;;;;;;;;;;22.41;54.75;97761.50;4244089;27;7686;-68
2023/10/01 11:37:16;;;;;;;;;;;;;;;22.41;54.44;97753.41;4234704;27;5605;-68
2023/10/01 11:39:38;;;;;;;;;;;;;;;22.41;54.46;97753.41;4248699;27;5691;-69
2023/10/01 11:41:43;;;;;;;;;;;;;;;22.41;54.45;97745.34;4250578;27;5670;-69
2023/10/01 11:43:58;;;;;;;;;;;;;;;22.42;54.79;97746.16;4245423;27;5699;-68
2023/10/01 11:46:18;;;;;;;;;;;;;;;22.43;54.31;97740.53;4242113;27;5738;-68
2023/10/01 11:48:37;;;;;;;;;;;;;;;22.43;54.35;97743.22;4243200;27;5814;-68
2023/10/01 11:50:50;;;;;;;;;;;;;;;22.42;54.58;97736.19;4251615;27;6352;-68
2023/10/01 11:53:04;;;;;;;;;;;;;;;22.44;54.50;97739.47;4240061;27;5710;-68
2023/10/01 11:55:19;;;;;;;;;;;;;;;22.45;53.76;97737.59;4242292;27;5642;-69
2023/10/01 11:57:23;;;;;;;;;;;;;;;22.44;54.03;97731.38;4242716;27;5737;-68
2023/10/01 11:59:26;;;;;;;;;;;;;;;22.42;54.40;97730.78;4251720;27;6538;-68
2023/10/01 12:01:38;;;;;;;;;;;;;;;22.42;54.38;97725.41;4242262;27;5606;-67
2023/10/01 12:03:57;;;;;;;;;;;;;;;22.44;54.37;97723.31;4242552;27;5605;-67
2023/10/01 12:06:01;;;;;;;;;;;;;;;22.47;54.49;97722.81;4250300;27;5669;-68
2023/10/01 12:08:05;;;;;;;;;;;;;;;22.48;54.30;97720.94;4234540;27;5665;-68
2023/10/01 12:10:31;;;;;;;;;;;;;;;22.50;54.40;97722.31;4242602;27;5704;-67
2023/10/01 12:12:36;;;;;;;;;;;;;;;22.50;54.02;97711.53;4241253;27;5630;-68
2023/10/01 12:14:53;;;;;;;;;;;;;;;22.51;54.08;97713.16;4240745;27;5767;-68
2023/10/01 12:16:58;;;;;;;;;;;;;;;22.53;54.46;97716.41;4242364;27;5695;-68
2023/10/01 12:21:33;;;;;;;;;;;;;;;22.55;53.90;97703.53;4278489;27;10302;-67
2023/10/01 12:23:36;;;;;;;;;;;;;;;22.55;53.88;97706.22;4256659;27;5717;-68
2023/10/01 12:25:46;;;;;;;;;;;;;;;22.56;54.31;97702.47;4256552;27;5798;-68
2023/10/01 12:27:48;;;;;;;;;;;;;;;22.59;54.15;97698.47;4256160;27;6555;-67
2023/10/01 12:29:53;;;;;;;;;;;;;;;22.59;53.69;97688.50;4258030;27;5642;-68
2023/10/01 12:31:59;;;;;;;;;;;;;;;22.60;54.16;97694.69;4252714;27;5764;-67
2023/10/01 12:34:02;;;;;;;;;;;;;;;22.61;53.83;97696.31;4260147;27;5815;-68
2023/10/01 12:36:11;;;;;;;;;;;;;;;22.62;53.75;97688.00;4262415;27;5787;-67
2023/10/01 12:38:24;;;;;;;;;;;;;;;22.64;53.51;97688.56;4256641;27;5984;-69
2023/10/01 12:40:27;;;;;;;;;;;;;;;22.65;53.28;97692.06;4259875;27;5759;-69
2023/10/01 12:42:31;;;;;;;;;;;;;;;22.65;53.78;97689.38;4263294;27;7232;-67
2023/10/01 12:44:34;;;;;;;;;;;;;;;22.67;53.45;97692.66;4260898;27;5745;-68
2023/10/01 12:46:51;;;;;;;;;;;;;;;22.67;53.61;97690.78;4260636;27;5616;-69
2023/10/01 12:51:33;;;;;;;;;;;;;;;22.69;52.93;97682.44;4220655;28;5803;-68
2023/10/01 12:53:47;;;;;;;;;;;;;;;22.70;53.37;97683.25;4218773;28;5769;-67
2023/10/01 12:55:53;;;;;;;;;;;;;;;22.71;52.97;97683.00;4224405;28;6421;-67
2023/10/01 12:57:56;;;;;;;;;;;;;;;22.72;53.04;97679.22;4223673;28;6486;-68
2023/10/01 13:02:28;;;;;;;;;;;;;;;22.74;53.26;97681.69;4222113;28;5659;-69
2023/10/01 13:04:32;;;;;;;;;;;;;;;22.73;53.36;97671.97;4226193;28;5662;-67
2023/10/01 13:06:39;;;;;;;;;;;;;;;22.75;53.40;97675.22;4222487;28;5745;-66
2023/10/01 13:08:43;;;;;;;;;;;;;;;22.74;52.96;97671.72;4227211;28;5735;-67
2023/10/01 13:10:50;;;;;;;;;;;;;;;22.75;53.00;97672.53;4226393;28;5727;-67
2023/10/01 13:12:56;;;;;;;;;;;;;;;22.75;53.51;97680.59;4216960;28;5727;-67
2023/10/01 13:15:29;;;;;;;;;;;;;;;22.77;53.42;97671.22;4220310;28;5639;-67
2023/10/01 13:17:35;;;;;;;;;;;;;;;22.81;53.15;97671.53;4221774;28;6390;-67
2023/10/01 13:19:38;;;;;;;;;;;;;;;22.80;52.94;97673.41;4224129;28;5711;-67
2023/10/01 13:21:41;;;;;;;;;;;;;;;22.81;53.28;97676.94;4223357;28;5623;-70
2023/10/01 13:23:46;;;;;;;;;;;;;;;22.83;53.00;97666.69;4220636;28;5716;-70
2023/10/01 13:25:52;;;;;;;;;;;;;;;22.83;53.27;97672.09;4235703;27;5855;-69
2023/10/01 13:28:04;;;;;;;;;;;;;;;22.84;53.30;97668.38;4262028;27;5620;-69
2023/10/01 13:30:18;;;;;;;;;;;;;;;22.81;53.27;97664.25;4248432;27;5771;-72
2023/10/01 13:32:26;;;;;;;;;;;;;;;22.83;53.35;97661.31;4254126;27;5736;-68
2023/10/01 13:34:46;;;;;;;;;;;;;;;22.83;53.46;97661.31;4246753;27;5642;-67
2023/10/01 13:39:25;;;;;;;;;;;;;;;22.84;53.29;97660.28;4244452;27;5707;-66
2023/10/01 14:09:52;;;;;;;;;;;;;;;22.90;54.28;97633.13;4169508;28;5831;-70
2023/10/01 14:11:56;;;;;;;;;;;;;;;22.90;54.24;97637.72;4169687;28;5832;-70
2023/10/01 14:13:59;;;;;;;;;;;;;;;22.90;54.29;97629.63;4176619;28;5930;-70
2023/10/01 14:16:11;;;;;;;;;;;;;;;22.90;54.41;97633.13;4176244;28;5753;-71
2023/10/01 14:18:34;;;;;;;;;;;;;;;22.91;53.89;97632.06;4175799;28;5792;-71
2023/10/01 14:20:44;;;;;;;;;;;;;;;22.93;54.01;97626.44;4174850;28;5767;-70
2023/10/01 14:22:49;;;;;;;;;;;;;;;22.92;54.46;97630.19;4177010;28;6642;-67
2023/10/01 14:24:54;;;;;;;;;;;;;;;22.95;54.10;97616.19;4182912;27;5646;-68
2023/10/01 14:27:01;;;;;;;;;;;;;;;22.95;54.34;97621.59;4241204;27;6476;-69
2023/10/01 14:29:05;;;;;;;;;;;;;;;22.96;54.45;97623.22;4242298;27;5699;-69
2023/10/01 14:31:08;;;;;;;;;;;;;;;22.96;54.01;97617.81;4240840;27;5787;-67
2023/10/01 14:33:23;;;;;;;;;;;;;;;22.95;54.35;97616.19;4244562;27;5633;-68
2023/10/01 14:35:37;;;;;;;;;;;;;;;22.97;54.64;97610.53;4242416;27;5753;-68
2023/10/01 14:37:40;;;;;;;;;;;;;;;22.98;53.97;97615.69;4250177;27;5637;-65
2023/10/01 14:39:47;;;;;;;;;;;;;;;22.99;54.27;97609.25;4249714;27;5724;-65
2023/10/01 14:41:50;;;;;;;;;;;;;;;22.99;54.18;97613.81;4250388;27;5711;-65
2023/10/01 14:43:54;;;;;;;;;;;;;;;22.98;54.52;97607.59;4248109;27;5772;-65
2023/10/01 14:45:57;;;;;;;;;;;;;;;22.98;54.22;97607.59;4242754;27;5708;-65
2023/10/01 14:48:06;;;;;;;;;;;;;;;22.98;54.77;97599.50;4243552;27;5642;-65
2023/10/01 14:50:14;;;;;;;;;;;;;;;22.98;54.33;97610.28;4248433;27;5815;-65
2023/10/01 14:52:22;;;;;;;;;;;;;;;23.00;54.57;97613.56;4243865;27;5063;-66
2023/10/01 14:54:28;;;;;;;;;;;;;;;22.99;54.62;97611.09;4245698;27;5863;-65
2023/10/01 14:56:34;;;;;;;;;;;;;;;22.96;54.23;97598.94;4246817;27;5733;-66
2023/10/01 14:58:37;;;;;;;;;;;;;;;22.98;54.62;97610.28;4242167;27;5613;-65
2023/10/01 15:00:49;;;;;;;;;;;;;;;22.99;54.77;97601.16;4251342;27;5610;-65
2023/10/01 15:02:52;;;;;;;;;;;;;;;22.98;54.66;97604.91;4242237;27;5745;-69
2023/10/01 15:04:55;;;;;;;;;;;;;;;22.98;54.67;97602.19;4243606;27;5733;-66
2023/10/01 15:07:00;;;;;;;;;;;;;;;23.00;54.80;97612.75;4250193;27;5687;-66
2023/10/01 15:09:03;;;;;;;;;;;;;;;23.00;54.68;97602.78;4250572;27;5628;-67
2023/10/01 15:11:14;;;;;;;;;;;;;;;23.00;54.60;97600.09;4250663;27;5635;-67
2023/10/01 15:13:21;;;;;;;;;;;;;;;23.02;54.45;97602.53;4235025;27;7672;-66
2023/10/01 15:15:41;;;;;;;;;;;;;;;23.01;54.84;97599.03;4246924;27;5789;-66
2023/10/01 15:17:56;;;;;;;;;;;;;;;23.00;54.88;97600.09;4249026;27;5692;-67
2023/10/01 15:19:59;;;;;;;;;;;;;;;23.00;54.98;97602.78;4242507;27;5649;-66
2023/10/01 15:22:08;;;;;;;;;;;;;;;23.01;54.74;97603.59;4241403;27;5724;-65
2023/10/01 15:24:11;;;;;;;;;;;;;;;23.01;54.95;97604.41;4247067;27;5707;-65
2023/10/01 15:26:14;;;;;;;;;;;;;;;23.01;54.90;97601.72;4242622;27;5711;-65
2023/10/01 15:28:17;;;;;;;;;;;;;;;23.02;54.70;97603.34;4245858;27;5755;-65
2023/10/01 15:30:24;;;;;;;;;;;;;;;23.02;54.94;97606.03;4245701;27;5677;-65
2023/10/01 15:32:29;;;;;;;;;;;;;;;23.03;54.74;97607.66;4246822;27;5724;-66
2023/10/01 15:34:38;;;;;;;;;;;;;;;23.05;54.80;97604.72;4246132;27;5658;-66
2023/10/01 15:36:41;;;;;;;;;;;;;;;23.03;54.80;97607.66;4240777;27;5716;-65
2023/10/01 15:38:43;;;;;;;;;;;;;;;23.03;54.75;97602.28;4233625;27;5656;-66
2023/10/01 15:40:52;;;;;;;;;;;;;;;23.04;54.75;97608.47;4241982;27;5741;-67
2023/10/01 15:42:55;;;;;;;;;;;;;;;23.04;55.09;97606.59;4238761;27;5824;-66
2023/10/01 15:44:59;;;;;;;;;;;;;;;23.04;54.73;97608.47;4237975;27;5646;-66
2023/10/01 15:47:03;;;;;;;;;;;;;;;23.03;55.04;97604.16;4239770;27;5929;-66
2023/10/01 15:49:18;;;;;;;;;;;;;;;23.03;54.66;97607.66;4244348;27;5678;-66
2023/10/01 15:51:26;;;;;;;;;;;;;;;23.03;54.98;97606.84;4240916;27;5604;-66
2023/10/01 15:53:29;;;;;;;;;;;;;;;23.04;55.15;97609.28;4241683;27;5753;-66
2023/10/01 15:55:33;;;;;;;;;;;;;;;23.02;54.52;97608.75;4238889;27;5844;-66
2023/10/01 15:57:36;;;;;;;;;;;;;;;23.04;54.61;97608.47;4240928;27;5644;-66
2023/10/01 15:59:39;;;;;;;;;;;;;;;23.04;55.05;97609.28;4241204;27;7698;-66
2023/10/01 16:01:50;;;;;;;;;;;;;;;23.04;54.96;97614.69;4245154;27;5617;-66
2023/10/01 16:03:54;;;;;;;;;;;;;;;23.03;54.67;97607.66;4245681;27;5795;-66
2023/10/01 16:06:08;;;;;;;;;;;;;;;23.04;54.89;97609.28;4243152;27;5723;-66
2023/10/01 16:08:20;;;;;;;;;;;;;;;23.05;54.71;97610.91;4243385;27;5712;-65
2023/10/01 16:10:23;;;;;;;;;;;;;;;23.03;54.71;97618.44;4246911;27;5724;-66
2023/10/01 16:12:25;;;;;;;;;;;;;;;23.00;54.66;97608.19;4244460;27;5662;-66
2023/10/01 16:14:28;;;;;;;;;;;;;;;22.98;55.08;97613.00;4246108;27;5661;-66
2023/10/01 16:16:31;;;;;;;;;;;;;;;22.98;54.94;97602.19;4239650;27;5646;-66
2023/10/01 16:18:35;;;;;;;;;;;;;;;22.97;54.64;97608.66;4249761;27;5731;-66
2023/10/01 16:20:37;;;;;;;;;;;;;;;22.98;55.22;97613.00;4242568;27;5737;-66
2023/10/01 16:22:40;;;;;;;;;;;;;;;22.98;55.09;97609.47;4241342;27;5820;-66
2023/10/01 16:24:43;;;;;;;;;;;;;;;23.00;55.21;97623.53;4249236;27;5636;-66
2023/10/01 16:26:46;;;;;;;;;;;;;;;23.00;55.16;97616.28;4244416;27;5824;-65
2023/10/01 16:28:53;;;;;;;;;;;;;;;23.01;54.91;97619.78;4248759;27;5763;-61
2023/10/01 16:31:03;;;;;;;;;;;;;;;22.99;54.84;97622.72;4239940;27;5890;-62
2023/10/01 16:33:12;;;;;;;;;;;;;;;22.98;55.05;97622.97;4247435;27;5724;-62
2023/10/01 16:35:19;;;;;;;;;;;;;;;22.97;55.33;97622.16;4236628;27;5733;-62
2023/10/01 16:37:23;;;;;;;;;;;;;;;22.96;54.92;97625.91;4235893;27;5950;-62
2023/10/01 16:39:26;;;;;;;;;;;;;;;22.95;55.21;97624.28;4241010;27;5780;-62
2023/10/01 16:41:30;;;;;;;;;;;;;;;22.94;55.06;97630.75;4243138;27;5625;-62
2023/10/01 16:43:39;;;;;;;;;;;;;;;22.93;55.02;97621.03;4246930;27;5638;-63
2023/10/01 16:45:43;;;;;;;;;;;;;;;22.92;55.40;97632.88;4243089;27;5613;-64
2023/10/01 16:47:51;;;;;;;;;;;;;;;22.90;55.65;97635.84;4239456;27;5665;-62
2023/10/01 16:49:55;;;;;;;;;;;;;;;22.90;55.31;97635.84;4245380;27;5725;-63
2023/10/01 16:51:58;;;;;;;;;;;;;;;22.90;55.27;97640.41;4237335;27;5777;-63
2023/10/01 16:54:03;;;;;;;;;;;;;;;22.88;55.58;97635.28;4242090;27;5837;-63
2023/10/01 16:56:12;;;;;;;;;;;;;;;22.88;55.31;97620.97;4241119;27;5700;-62
2023/10/01 16:58:17;;;;;;;;;;;;;;;22.88;55.32;97631.78;4246182;27;5616;-62
2023/10/01 17:00:20;;;;;;;;;;;;;;;22.87;55.57;97627.41;4247566;27;5628;-62
2023/10/01 17:02:28;;;;;;;;;;;;;;;22.86;55.83;97639.28;4240028;27;5774;-63
2023/10/01 17:04:34;;;;;;;;;;;;;;;22.86;55.31;97628.47;4243196;27;5798;-65
2023/10/01 17:06:39;;;;;;;;;;;;;;;22.84;55.63;97630.63;4244332;27;5620;-65
2023/10/01 17:08:41;;;;;;;;;;;;;;;22.84;55.47;97639.53;4249738;27;5634;-65
2023/10/01 17:10:45;;;;;;;;;;;;;;;22.82;55.34;97633.53;4252930;27;5933;-65
2023/10/01 17:12:48;;;;;;;;;;;;;;;22.81;55.81;97631.91;4252722;27;5636;-64
2023/10/01 17:14:53;;;;;;;;;;;;;;;22.81;55.51;97636.50;4247362;27;5782;-65